Time;durP1;ratioP1;P1;durP2;ratioP2;P2;SDS_P1;SDS_P2;PMS_P1;PMS_P2;Temp;Humidity;BMP_temperature;BMP_pressure;BME280_temperature;BME280_humidity;BME280_pressure;Samples;Min_cycle;Max_cycle;Signal;HPM_P1;HPM_P2
2022/04/14 00:00:48;;;;;;;;;20.75;16.25;;;;;;;;5050803;28;45338;-87
2022/04/14 00:03:13;;;;;;;;;21.25;19.00;;;;;;;;5054364;28;47071;-85
2022/04/14 00:05:38;;;;;;;;;15.00;15.00;;;;;;;;5059186;28;45456;-86
2022/04/14 00:08:04;;;;;;;;;18.75;17.00;;;;;;;;5056476;28;45340;-85
2022/04/14 00:10:29;;;;;;;;;22.75;21.00;;;;;;;;5056180;28;45371;-86
2022/04/14 00:12:54;;;;;;;;;21.00;19.00;;;;;;;;5055308;28;45454;-86
2022/04/14 00:15:19;;;;;;;;;23.50;21.00;;;;;;;;5063629;28;45435;-92
2022/04/14 00:17:44;;;;;;;;;21.00;20.00;;;;;;;;5069360;27;45409;-91
2022/04/14 00:20:10;;;;;;;;;22.25;22.00;;;;;;;;5065582;28;45257;-91
2022/04/14 00:22:36;;;;;;;;;27.25;22.25;;;;;;;;5076808;28;46021;-91
2022/04/14 00:25:01;;;;;;;;;18.00;17.00;;;;;;;;5070922;27;45216;-91
2022/04/14 00:27:26;;;;;;;;;18.00;16.75;;;;;;;;5063724;28;45500;-91
2022/04/14 00:29:51;;;;;;;;;18.50;18.25;;;;;;;;5060684;28;45448;-93
2022/04/14 00:32:17;;;;;;;;;18.50;17.00;;;;;;;;5066827;28;46229;-92
2022/04/14 00:34:42;;;;;;;;;27.50;21.75;;;;;;;;5057630;28;45334;-90
2022/04/14 00:37:09;;;;;;;;;22.00;18.00;;;;;;;;5054352;28;45365;-92
2022/04/14 00:39:35;;;;;;;;;20.50;18.00;;;;;;;;5058914;28;45476;-91
2022/04/14 00:42:00;;;;;;;;;18.75;18.75;;;;;;;;5060274;28;46261;-92
2022/04/14 00:44:26;;;;;;;;;20.00;19.25;;;;;;;;5051863;28;45466;-92
2022/04/14 00:46:51;;;;;;;;;21.75;20.75;;;;;;;;5057853;28;45395;-92
2022/04/14 00:49:17;;;;;;;;;19.50;18.00;;;;;;;;5063941;28;45566;-91
2022/04/14 00:51:42;;;;;;;;;17.25;17.25;;;;;;;;5048231;28;48287;-92
2022/04/14 00:54:07;;;;;;;;;19.25;19.25;;;;;;;;5062315;28;45415;-92
2022/04/14 00:56:32;;;;;;;;;19.50;18.25;;;;;;;;5061274;28;45333;-83
2022/04/14 00:58:58;;;;;;;;;22.00;22.00;;;;;;;;5059271;28;45409;-83
2022/04/14 01:01:23;;;;;;;;;17.75;13.00;;;;;;;;5063609;27;46975;-83
2022/04/14 01:03:50;;;;;;;;;21.50;19.50;;;;;;;;5055582;28;45497;-83
2022/04/14 01:06:16;;;;;;;;;22.00;19.50;;;;;;;;5056902;28;45238;-83
2022/04/14 01:09:16;;;;;;;;;25.00;21.25;;;;;;;;5065133;28;45491;-83
2022/04/14 01:11:27;;;;;;;;;23.75;19.75;;;;;;;;5058487;27;45487;-83
2022/04/14 01:13:53;;;;;;;;;22.25;18.75;;;;;;;;5056159;28;45474;-83
2022/04/14 01:16:18;;;;;;;;;16.00;15.25;;;;;;;;5065471;27;45388;-83
2022/04/14 01:18:43;;;;;;;;;18.00;16.50;;;;;;;;5064492;28;45639;-83
2022/04/14 01:21:08;;;;;;;;;19.75;17.50;;;;;;;;5062388;27;45406;-83
2022/04/14 01:23:41;;;;;;;;;23.00;17.75;;;;;;;;5052458;28;45530;-84
2022/04/14 01:26:07;;;;;;;;;20.50;19.00;;;;;;;;5053244;28;45427;-83
2022/04/14 01:28:32;;;;;;;;;20.25;17.75;;;;;;;;5067240;28;45491;-84
2022/04/14 01:30:58;;;;;;;;;20.50;18.25;;;;;;;;5060717;28;45449;-84
2022/04/14 01:33:23;;;;;;;;;18.75;17.75;;;;;;;;5048474;28;45541;-83
2022/04/14 01:35:48;;;;;;;;;23.75;21.00;;;;;;;;5054442;28;45314;-83
2022/04/14 01:38:13;;;;;;;;;20.75;19.75;;;;;;;;5060264;28;45315;-83
2022/04/14 01:40:39;;;;;;;;;20.75;17.00;;;;;;;;5056530;28;45314;-83
2022/04/14 01:43:04;;;;;;;;;23.00;18.00;;;;;;;;5054197;28;45339;-83
2022/04/14 01:45:29;;;;;;;;;21.00;19.00;;;;;;;;5054268;28;45555;-83
2022/04/14 01:47:54;;;;;;;;;19.25;19.00;;;;;;;;5056547;28;45583;-82
2022/04/14 01:50:20;;;;;;;;;18.50;16.25;;;;;;;;5058692;28;45490;-83
2022/04/14 01:52:46;;;;;;;;;20.50;20.50;;;;;;;;5052541;28;45588;-83
2022/04/14 01:55:12;;;;;;;;;18.50;17.50;;;;;;;;5066961;28;45451;-83
2022/04/14 01:57:37;;;;;;;;;20.75;19.75;;;;;;;;5049576;28;45530;-83
2022/04/14 02:00:05;;;;;;;;;26.75;21.75;;;;;;;;5055175;28;45922;-83
2022/04/14 02:02:30;;;;;;;;;20.75;20.00;;;;;;;;5066498;27;45437;-82
2022/04/14 02:04:55;;;;;;;;;22.00;20.25;;;;;;;;5067096;27;45212;-83
2022/04/14 02:07:20;;;;;;;;;21.50;20.00;;;;;;;;5056799;28;45299;-82
2022/04/14 02:09:46;;;;;;;;;25.50;23.25;;;;;;;;5061093;28;46086;-82
2022/04/14 02:12:11;;;;;;;;;23.00;22.50;;;;;;;;5062559;28;45208;-83
2022/04/14 02:14:37;;;;;;;;;26.00;24.75;;;;;;;;5058799;28;45471;-82
2022/04/14 02:17:02;;;;;;;;;19.25;18.75;;;;;;;;5062536;28;45486;-83
2022/04/14 02:19:28;;;;;;;;;26.00;23.00;;;;;;;;5059150;28;46382;-84
2022/04/14 02:21:54;;;;;;;;;18.25;18.25;;;;;;;;5056719;28;45345;-83
2022/04/14 02:24:19;;;;;;;;;17.00;17.00;;;;;;;;5061028;28;45276;-83
2022/04/14 02:26:44;;;;;;;;;25.25;23.25;;;;;;;;5065133;27;45379;-83
2022/04/14 02:29:10;;;;;;;;;21.25;20.75;;;;;;;;5055958;28;45620;-83
2022/04/14 02:31:35;;;;;;;;;26.75;24.75;;;;;;;;5071376;28;45332;-83
2022/04/14 02:34:00;;;;;;;;;23.75;18.75;;;;;;;;5065226;28;45445;-82
2022/04/14 02:36:25;;;;;;;;;21.00;19.25;;;;;;;;5059611;28;45565;-82
2022/04/14 02:38:50;;;;;;;;;25.25;23.50;;;;;;;;5058943;28;46726;-83
2022/04/14 02:41:16;;;;;;;;;21.25;21.25;;;;;;;;5040261;28;45514;-83
2022/04/14 02:43:41;;;;;;;;;21.25;19.75;;;;;;;;5058575;28;45561;-82
2022/04/14 02:46:06;;;;;;;;;25.50;21.75;;;;;;;;5060525;28;45404;-83
2022/04/14 02:48:31;;;;;;;;;18.00;17.25;;;;;;;;5061307;28;47034;-82
2022/04/14 02:50:57;;;;;;;;;22.00;22.00;;;;;;;;5057449;28;45427;-82
2022/04/14 02:53:22;;;;;;;;;27.25;26.00;;;;;;;;5057383;28;45415;-83
2022/04/14 02:55:47;;;;;;;;;24.25;23.50;;;;;;;;5056874;28;45473;-83
2022/04/14 02:58:13;;;;;;;;;28.50;26.25;;;;;;;;5043696;28;46233;-82
2022/04/14 03:00:38;;;;;;;;;27.00;24.75;;;;;;;;5066052;27;45507;-84
2022/04/14 03:03:03;;;;;;;;;30.50;23.25;;;;;;;;5062051;27;45316;-83
2022/04/14 03:05:28;;;;;;;;;21.25;20.75;;;;;;;;5055690;28;45494;-83
2022/04/14 03:07:54;;;;;;;;;23.75;20.25;;;;;;;;5054167;28;46062;-83
2022/04/14 03:10:19;;;;;;;;;27.75;23.25;;;;;;;;5057721;28;45307;-82
2022/04/14 03:12:46;;;;;;;;;29.75;25.25;;;;;;;;5055267;28;45323;-82
2022/04/14 03:15:12;;;;;;;;;24.25;22.50;;;;;;;;5053095;28;45299;-82
2022/04/14 03:17:37;;;;;;;;;25.50;21.75;;;;;;;;5065690;27;45940;-82
2022/04/14 03:20:03;;;;;;;;;25.75;24.00;;;;;;;;5053673;28;45361;-82
2022/04/14 03:22:32;;;;;;;;;28.75;27.50;;;;;;;;5063611;28;45496;-82
2022/04/14 03:24:57;;;;;;;;;22.75;20.75;;;;;;;;5059849;28;45553;-81
2022/04/14 03:27:22;;;;;;;;;29.75;25.75;;;;;;;;5059856;28;45537;-82
2022/04/14 03:29:48;;;;;;;;;27.25;21.50;;;;;;;;5057337;28;45497;-82
2022/04/14 03:32:13;;;;;;;;;29.50;27.25;;;;;;;;5054349;28;45463;-83
2022/04/14 03:34:38;;;;;;;;;25.00;24.25;;;;;;;;5058461;28;45591;-83
2022/04/14 03:37:04;;;;;;;;;29.75;26.75;;;;;;;;5058018;28;46129;-83
2022/04/14 03:39:29;;;;;;;;;30.00;29.00;;;;;;;;5055339;27;45461;-82
2022/04/14 03:41:54;;;;;;;;;29.25;28.50;;;;;;;;5054921;28;45296;-83
2022/04/14 03:44:19;;;;;;;;;32.00;29.50;;;;;;;;5066317;27;45381;-82
2022/04/14 03:46:44;;;;;;;;;29.75;28.00;;;;;;;;5070929;27;45507;-82
2022/04/14 03:49:10;;;;;;;;;31.00;28.50;;;;;;;;5061928;27;45473;-83
2022/04/14 03:51:36;;;;;;;;;32.75;29.00;;;;;;;;5056342;28;45495;-82
2022/04/14 03:54:01;;;;;;;;;31.50;29.25;;;;;;;;5056538;28;45598;-82
2022/04/14 03:56:26;;;;;;;;;34.75;31.50;;;;;;;;5054585;28;45518;-82
2022/04/14 03:58:51;;;;;;;;;35.25;30.75;;;;;;;;5061659;28;45589;-81
2022/04/14 04:01:16;;;;;;;;;26.50;26.00;;;;;;;;5065450;28;45366;-83
2022/04/14 04:03:42;;;;;;;;;27.75;26.00;;;;;;;;5056564;28;45459;-82
2022/04/14 04:06:07;;;;;;;;;34.25;30.50;;;;;;;;5057271;28;46302;-82
2022/04/14 04:08:32;;;;;;;;;37.25;33.25;;;;;;;;5057557;28;45454;-82
2022/04/14 04:10:58;;;;;;;;;33.75;30.50;;;;;;;;5059664;28;45510;-82
2022/04/14 04:13:23;;;;;;;;;36.00;31.25;;;;;;;;5042153;28;45430;-82
2022/04/14 04:15:50;;;;;;;;;30.50;28.00;;;;;;;;5056380;28;46198;-82
2022/04/14 04:18:15;;;;;;;;;37.00;33.75;;;;;;;;5059227;27;45324;-82
2022/04/14 04:20:40;;;;;;;;;27.50;26.25;;;;;;;;5050615;28;46436;-82
2022/04/14 04:23:05;;;;;;;;;36.25;27.25;;;;;;;;5053755;28;45454;-83
2022/04/14 04:25:31;;;;;;;;;35.00;32.00;;;;;;;;5068425;27;47138;-83
2022/04/14 04:27:56;;;;;;;;;33.50;30.25;;;;;;;;5060035;28;45309;-82
2022/04/14 04:30:22;;;;;;;;;31.25;29.75;;;;;;;;5061699;27;45313;-81
2022/04/14 04:32:47;;;;;;;;;28.50;28.50;;;;;;;;5062355;28;45568;-81
2022/04/14 04:35:13;;;;;;;;;30.75;28.00;;;;;;;;5064088;28;46136;-82
2022/04/14 04:37:38;;;;;;;;;29.75;28.00;;;;;;;;5063842;28;45641;-81
2022/04/14 04:40:03;;;;;;;;;57.25;47.50;;;;;;;;5054966;28;45455;-81
2022/04/14 04:42:29;;;;;;;;;28.50;24.25;;;;;;;;5050778;28;45573;-82
2022/04/14 04:44:54;;;;;;;;;31.50;29.00;;;;;;;;5052206;28;46206;-82
2022/04/14 04:47:22;;;;;;;;;29.25;25.25;;;;;;;;5052866;28;45370;-82
2022/04/14 04:49:47;;;;;;;;;27.25;25.75;;;;;;;;5062730;28;45526;-82
2022/04/14 04:52:13;;;;;;;;;31.50;28.50;;;;;;;;5055899;28;45308;-84
2022/04/14 04:54:38;;;;;;;;;32.50;28.00;;;;;;;;5053904;28;46978;-82
2022/04/14 04:57:03;;;;;;;;;30.00;28.75;;;;;;;;5052419;28;45723;-82
2022/04/14 04:59:29;;;;;;;;;32.50;30.25;;;;;;;;5052512;28;45361;-82
2022/04/14 05:01:54;;;;;;;;;33.25;31.25;;;;;;;;5052866;28;45478;-83
2022/04/14 05:04:20;;;;;;;;;31.75;30.25;;;;;;;;5063445;27;46347;-83
2022/04/14 05:06:45;;;;;;;;;35.00;31.50;;;;;;;;5053374;28;45364;-83
2022/04/14 05:09:10;;;;;;;;;30.25;26.75;;;;;;;;5053781;28;45446;-83
2022/04/14 05:11:35;;;;;;;;;46.50;36.75;;;;;;;;5061979;28;45580;-82
2022/04/14 05:14:01;;;;;;;;;39.00;33.50;;;;;;;;5052626;28;46336;-83
2022/04/14 05:16:27;;;;;;;;;42.25;35.25;;;;;;;;5053813;28;45690;-83
2022/04/14 05:18:52;;;;;;;;;28.75;26.50;;;;;;;;5052025;28;45682;-84
2022/04/14 05:21:17;;;;;;;;;31.50;29.25;;;;;;;;5052244;28;45482;-81
2022/04/14 05:23:42;;;;;;;;;34.50;29.75;;;;;;;;5051039;28;46147;-84
2022/04/14 05:26:08;;;;;;;;;51.75;42.00;;;;;;;;5054194;28;45436;-83
2022/04/14 05:28:33;;;;;;;;;37.00;34.00;;;;;;;;5061200;28;45279;-83
2022/04/14 05:30:58;;;;;;;;;29.75;29.50;;;;;;;;5051935;28;45376;-83
2022/04/14 05:33:23;;;;;;;;;39.00;37.00;;;;;;;;5035100;28;47650;-83
2022/04/14 05:35:49;;;;;;;;;35.75;33.25;;;;;;;;5057524;28;47373;-85
2022/04/14 05:38:14;;;;;;;;;32.50;26.50;;;;;;;;5058442;28;45442;-81
2022/04/14 05:40:41;;;;;;;;;35.75;31.75;;;;;;;;5052972;28;45395;-84
2022/04/14 05:43:19;;;;;;;;;32.75;31.50;;;;;;;;5053369;28;45629;-82
2022/04/14 05:45:47;;;;;;;;;32.50;30.00;;;;;;;;5052673;28;45295;-82
2022/04/14 05:48:15;;;;;;;;;37.00;32.25;;;;;;;;5051085;28;45376;-82
2022/04/14 05:50:40;;;;;;;;;36.00;32.00;;;;;;;;5051386;28;45407;-82
2022/04/14 05:53:06;;;;;;;;;30.50;30.00;;;;;;;;5051444;28;47209;-83
2022/04/14 05:55:31;;;;;;;;;38.50;32.00;;;;;;;;5059305;28;45501;-83
2022/04/14 05:57:56;;;;;;;;;35.00;31.25;;;;;;;;5054840;28;45434;-83
2022/04/14 06:00:21;;;;;;;;;49.00;39.25;;;;;;;;5053137;27;45327;-82
2022/04/14 06:02:47;;;;;;;;;37.25;30.25;;;;;;;;5058699;28;45533;-83
2022/04/14 06:05:12;;;;;;;;;33.75;31.00;;;;;;;;5053629;28;45479;-82
2022/04/14 06:07:37;;;;;;;;;33.75;30.25;;;;;;;;5053425;28;45380;-82
2022/04/14 06:10:03;;;;;;;;;35.50;31.50;;;;;;;;5052802;28;45285;-82
2022/04/14 06:12:28;;;;;;;;;40.00;34.50;;;;;;;;5050698;28;46105;-83
2022/04/14 06:14:53;;;;;;;;;40.25;34.25;;;;;;;;5044262;28;45462;-82
2022/04/14 06:17:18;;;;;;;;;34.00;31.25;;;;;;;;5049846;28;45432;-82
2022/04/14 06:19:43;;;;;;;;;40.00;34.50;;;;;;;;5050589;28;45298;-81
2022/04/14 06:22:09;;;;;;;;;39.50;34.50;;;;;;;;5054423;28;46441;-79
2022/04/14 06:24:34;;;;;;;;;38.75;32.50;;;;;;;;5054619;28;45597;-81
2022/04/14 06:26:59;;;;;;;;;37.75;32.00;;;;;;;;5050227;28;45324;-81
2022/04/14 06:29:24;;;;;;;;;41.50;33.00;;;;;;;;5044273;28;45527;-81
2022/04/14 06:31:49;;;;;;;;;38.00;33.00;;;;;;;;5050118;28;45332;-81
2022/04/14 06:34:15;;;;;;;;;42.00;33.00;;;;;;;;5064534;28;45643;-83
2022/04/14 06:36:40;;;;;;;;;37.50;32.50;;;;;;;;5051702;28;45610;-81
2022/04/14 06:39:12;;;;;;;;;40.25;34.25;;;;;;;;5050164;28;45385;-83
2022/04/14 06:41:37;;;;;;;;;37.00;31.75;;;;;;;;5050171;28;46224;-82
2022/04/14 06:44:02;;;;;;;;;37.50;33.50;;;;;;;;5052328;28;45666;-82
2022/04/14 06:46:29;;;;;;;;;36.00;32.00;;;;;;;;5055200;28;45646;-83
2022/04/14 06:48:55;;;;;;;;;44.25;36.00;;;;;;;;5054269;28;45297;-83
2022/04/14 06:51:20;;;;;;;;;40.75;35.00;;;;;;;;5051326;28;45460;-83
2022/04/14 06:53:48;;;;;;;;;34.00;32.75;;;;;;;;5039046;28;45817;-81
2022/04/14 06:56:13;;;;;;;;;36.25;34.50;;;;;;;;5053560;28;45353;-82
2022/04/14 06:58:38;;;;;;;;;42.50;34.50;;;;;;;;5055332;28;45436;-83
2022/04/14 07:01:04;;;;;;;;;49.50;38.50;;;;;;;;5053346;28;46121;-83
2022/04/14 07:03:29;;;;;;;;;42.25;37.00;;;;;;;;5052663;28;45408;-84
2022/04/14 07:05:56;;;;;;;;;36.00;33.25;;;;;;;;5051290;28;45382;-83
2022/04/14 07:08:21;;;;;;;;;42.00;34.75;;;;;;;;5053913;28;45547;-83
2022/04/14 07:10:47;;;;;;;;;47.25;37.00;;;;;;;;5052671;28;46214;-83
2022/04/14 07:13:12;;;;;;;;;48.50;38.50;;;;;;;;5054413;28;45362;-84
2022/04/14 07:15:37;;;;;;;;;40.25;35.25;;;;;;;;5047499;28;45426;-83
2022/04/14 07:18:02;;;;;;;;;39.50;34.00;;;;;;;;5053658;28;45363;-84
2022/04/14 07:20:30;;;;;;;;;46.00;37.25;;;;;;;;5052687;28;46338;-83
2022/04/14 07:22:58;;;;;;;;;45.00;37.25;;;;;;;;5052786;28;45512;-83
2022/04/14 07:25:24;;;;;;;;;38.25;35.75;;;;;;;;5055229;28;45537;-82
2022/04/14 07:27:49;;;;;;;;;45.25;38.50;;;;;;;;5053309;28;45578;-81
2022/04/14 07:30:15;;;;;;;;;44.75;37.00;;;;;;;;5051921;28;46305;-84
2022/04/14 07:32:43;;;;;;;;;46.25;39.50;;;;;;;;5052224;28;45537;-84
2022/04/14 07:35:08;;;;;;;;;40.00;34.75;;;;;;;;5052680;28;45393;-84
2022/04/14 07:37:33;;;;;;;;;44.00;34.25;;;;;;;;5054159;28;45405;-83
2022/04/14 07:39:59;;;;;;;;;42.50;35.00;;;;;;;;5053961;28;46045;-83
2022/04/14 07:42:31;;;;;;;;;43.00;35.00;;;;;;;;5051695;28;45377;-83
2022/04/14 07:44:56;;;;;;;;;39.75;33.00;;;;;;;;5051927;28;45503;-83
2022/04/14 07:47:22;;;;;;;;;45.50;36.00;;;;;;;;5053671;28;45376;-84
2022/04/14 07:49:47;;;;;;;;;42.75;33.75;;;;;;;;5052959;28;46248;-82
2022/04/14 07:52:13;;;;;;;;;38.75;33.75;;;;;;;;5055320;28;45427;-83
2022/04/14 07:54:38;;;;;;;;;40.50;32.00;;;;;;;;5052705;28;45230;-82
2022/04/14 07:57:03;;;;;;;;;28.25;26.25;;;;;;;;5052533;28;45255;-84
2022/04/14 07:59:28;;;;;;;;;30.50;24.00;;;;;;;;5051984;28;45216;-83
2022/04/14 08:01:54;;;;;;;;;30.25;29.00;;;;;;;;5052832;28;45383;-83
2022/04/14 08:04:19;;;;;;;;;28.75;25.50;;;;;;;;5054307;28;45291;-84
2022/04/14 08:06:44;;;;;;;;;32.25;29.25;;;;;;;;5038889;28;45408;-83
2022/04/14 08:09:09;;;;;;;;;38.00;35.50;;;;;;;;5052529;28;46398;-82
2022/04/14 08:11:35;;;;;;;;;30.00;27.75;;;;;;;;5052294;28;45514;-83
2022/04/14 08:14:00;;;;;;;;;24.50;19.75;;;;;;;;5052589;28;45405;-83
2022/04/14 08:16:26;;;;;;;;;22.75;19.75;;;;;;;;5054581;28;45326;-82
2022/04/14 08:18:51;;;;;;;;;22.25;20.75;;;;;;;;5052059;28;45384;-82
2022/04/14 08:21:16;;;;;;;;;27.50;24.00;;;;;;;;5051875;28;45352;-82
2022/04/14 08:23:41;;;;;;;;;28.75;27.25;;;;;;;;5051974;28;45336;-82
2022/04/14 08:26:11;;;;;;;;;29.00;25.25;;;;;;;;5052444;28;45544;-83
2022/04/14 08:28:40;;;;;;;;;29.75;27.50;;;;;;;;5052677;28;47238;-83
2022/04/14 08:31:06;;;;;;;;;28.25;26.75;;;;;;;;5048139;28;45455;-82
2022/04/14 08:33:31;;;;;;;;;35.25;29.00;;;;;;;;5051336;28;45343;-83
2022/04/14 08:35:56;;;;;;;;;27.50;24.50;;;;;;;;5051567;28;45382;-83
2022/04/14 08:38:22;;;;;;;;;29.75;28.75;;;;;;;;5053577;28;46278;-83
2022/04/14 08:40:49;;;;;;;;;33.00;30.75;;;;;;;;5053413;28;45325;-82
2022/04/14 08:43:16;;;;;;;;;41.50;34.25;;;;;;;;5055663;28;45470;-83
2022/04/14 08:45:46;;;;;;;;;31.50;29.25;;;;;;;;5054014;28;45295;-83
2022/04/14 08:48:12;;;;;;;;;30.50;27.25;;;;;;;;5053824;28;46262;-84
2022/04/14 08:50:38;;;;;;;;;29.25;25.50;;;;;;;;5054028;28;45441;-83
2022/04/14 08:53:04;;;;;;;;;28.25;24.75;;;;;;;;5053776;28;45581;-83
2022/04/14 08:55:29;;;;;;;;;25.25;24.00;;;;;;;;5055052;28;45431;-82
2022/04/14 08:57:54;;;;;;;;;23.50;23.25;;;;;;;;5053754;28;46197;-84
2022/04/14 09:00:20;;;;;;;;;26.00;24.75;;;;;;;;5053220;28;45500;-83
2022/04/14 09:02:46;;;;;;;;;27.50;24.50;;;;;;;;5054069;28;45420;-82
2022/04/14 09:05:16;;;;;;;;;21.75;21.25;;;;;;;;5053635;28;45421;-83
2022/04/14 09:07:42;;;;;;;;;27.75;24.50;;;;;;;;5052610;28;46342;-84
2022/04/14 09:10:07;;;;;;;;;23.00;22.75;;;;;;;;5054330;28;45477;-84
2022/04/14 09:12:35;;;;;;;;;24.00;22.50;;;;;;;;5051945;28;45432;-82
2022/04/14 09:15:00;;;;;;;;;24.75;22.00;;;;;;;;5053397;28;45855;-83
2022/04/14 09:17:27;;;;;;;;;23.25;21.00;;;;;;;;5052729;28;47090;-84
2022/04/14 09:19:52;;;;;;;;;20.75;15.00;;;;;;;;5051930;28;45308;-83
2022/04/14 09:22:17;;;;;;;;;27.25;24.75;;;;;;;;5053472;28;45380;-83
2022/04/14 09:24:49;;;;;;;;;24.00;20.25;;;;;;;;5051045;28;45476;-82
2022/04/14 09:27:37;;;;;;;;;26.00;24.75;;;;;;;;5052041;28;46442;-83
2022/04/14 09:30:04;;;;;;;;;20.75;19.75;;;;;;;;5055299;28;45446;-83
2022/04/14 09:32:30;;;;;;;;;26.00;23.25;;;;;;;;5058225;28;45492;-83
2022/04/14 09:34:57;;;;;;;;;28.00;25.50;;;;;;;;5051835;28;45508;-83
2022/04/14 09:37:23;;;;;;;;;19.75;18.00;;;;;;;;5053448;28;46382;-84
2022/04/14 09:40:09;;;;;;;;;16.75;15.00;;;;;;;;5049896;28;45606;-84
2022/04/14 09:42:38;;;;;;;;;21.50;19.75;;;;;;;;5050994;28;45437;-83
2022/04/14 09:45:19;;;;;;;;;21.50;18.75;;;;;;;;5051415;28;45276;-82
2022/04/14 09:47:45;;;;;;;;;27.50;22.50;;;;;;;;5050738;28;47116;-84
2022/04/14 09:50:26;;;;;;;;;19.00;18.50;;;;;;;;5051134;28;45442;-84
2022/04/14 09:52:58;;;;;;;;;29.25;28.00;;;;;;;;5051808;28;45364;-83
2022/04/14 09:55:23;;;;;;;;;23.00;21.00;;;;;;;;5053678;28;45442;-83
2022/04/14 09:58:15;;;;;;;;;24.75;19.50;;;;;;;;5054487;28;45982;-83
2022/04/14 10:00:41;;;;;;;;;22.75;22.50;;;;;;;;5047781;28;45258;-84
2022/04/14 10:03:07;;;;;;;;;24.00;22.00;;;;;;;;5051148;28;45756;-83
2022/04/14 10:05:35;;;;;;;;;42.25;37.75;;;;;;;;5050073;28;45721;-83
2022/04/14 10:08:00;;;;;;;;;19.75;17.00;;;;;;;;5050562;28;47128;-83
2022/04/14 10:10:26;;;;;;;;;14.00;12.50;;;;;;;;5038735;28;45405;-83
2022/04/14 10:13:00;;;;;;;;;14.25;12.25;;;;;;;;5050634;28;45316;-83
2022/04/14 10:15:26;;;;;;;;;17.75;15.25;;;;;;;;5050765;28;45488;-84
2022/04/14 10:17:51;;;;;;;;;15.75;14.50;;;;;;;;5050229;28;46262;-84
2022/04/14 10:20:18;;;;;;;;;17.25;11.75;;;;;;;;5054253;28;45705;-83
2022/04/14 10:22:44;;;;;;;;;14.50;12.75;;;;;;;;5053856;28;45271;-83
2022/04/14 10:25:09;;;;;;;;;13.50;12.50;;;;;;;;5056529;28;45348;-83
2022/04/14 10:27:35;;;;;;;;;8.25;8.25;;;;;;;;5054718;28;46076;-83
2022/04/14 10:30:01;;;;;;;;;14.00;11.75;;;;;;;;5054927;28;45313;-83
2022/04/14 10:32:26;;;;;;;;;13.00;13.00;;;;;;;;5054014;28;46241;-83
2022/04/14 10:34:52;;;;;;;;;9.75;9.75;;;;;;;;5052642;28;45360;-83
2022/04/14 10:37:21;;;;;;;;;10.00;10.00;;;;;;;;5055355;28;46333;-84
2022/04/14 10:39:48;;;;;;;;;12.50;10.50;;;;;;;;5053280;28;45507;-83
2022/04/14 10:42:16;;;;;;;;;14.50;12.75;;;;;;;;5053971;28;45378;-84
2022/04/14 10:44:46;;;;;;;;;7.50;6.25;;;;;;;;5053774;28;45367;-84
2022/04/14 10:47:12;;;;;;;;;8.75;8.75;;;;;;;;5053947;28;46370;-85
2022/04/14 10:49:39;;;;;;;;;8.25;6.00;;;;;;;;5054470;28;45538;-79
2022/04/14 10:52:24;;;;;;;;;10.50;9.00;;;;;;;;5056028;28;45457;-85
2022/04/14 10:54:57;;;;;;;;;10.50;9.25;;;;;;;;5052314;28;45344;-84
2022/04/14 10:57:50;;;;;;;;;8.00;7.00;;;;;;;;5054557;28;46477;-85
2022/04/14 11:00:18;;;;;;;;;4.33;4.33;;;;;;;;5051368;28;45361;-83
2022/04/14 11:03:02;;;;;;;;;6.00;6.00;;;;;;;;5054518;28;45589;-83
2022/04/14 11:05:39;;;;;;;;;4.67;4.67;;;;;;;;5053715;28;45572;-85
2022/04/14 11:08:24;;;;;;;;;10.00;9.00;;;;;;;;5039049;28;46687;-82
2022/04/14 11:11:05;;;;;;;;;12.50;10.25;;;;;;;;5034487;28;45341;-81
2022/04/14 11:13:48;;;;;;;;;5.25;5.25;;;;;;;;5051705;28;45283;-82
2022/04/14 11:16:32;;;;;;;;;6.67;5.33;;;;;;;;5054119;28;45376;-80
2022/04/14 11:19:16;;;;;;;;;7.00;5.33;;;;;;;;5052911;28;47328;-78
2022/04/14 11:22:02;;;;;;;;;6.33;6.33;;;;;;;;5051043;28;45226;-84
2022/04/14 11:24:40;;;;;;;;;11.50;11.00;;;;;;;;5052933;28;45466;-82
2022/04/14 11:27:14;;;;;;;;;8.25;8.25;;;;;;;;5052897;28;45605;-83
2022/04/14 11:29:40;;;;;;;;;8.75;7.25;;;;;;;;5052811;28;45893;-82
2022/04/14 11:32:06;;;;;;;;;10.75;7.75;;;;;;;;5052692;28;45429;-82
2022/04/14 11:34:32;;;;;;;;;4.00;4.00;;;;;;;;5054419;28;45459;-82
2022/04/14 11:36:57;;;;;;;;;4.75;4.50;;;;;;;;5054817;28;45508;-80
2022/04/14 11:39:25;;;;;;;;;5.75;5.75;;;;;;;;5053417;28;45449;-79
2022/04/14 11:41:50;;;;;;;;;5.25;4.75;;;;;;;;5052678;28;45344;-79
2022/04/14 11:44:25;;;;;;;;;0.50;0.50;;;;;;;;5053388;28;45473;-80
2022/04/14 11:46:51;;;;;;;;;5.25;4.00;;;;;;;;5053035;28;45354;-82
2022/04/14 11:49:24;;;;;;;;;6.50;6.25;;;;;;;;5054228;28;46401;-80
2022/04/14 11:51:50;;;;;;;;;5.00;5.00;;;;;;;;5049975;28;45442;-82
2022/04/14 11:54:22;;;;;;;;;4.25;4.25;;;;;;;;5052154;28;45281;-83
2022/04/14 11:56:54;;;;;;;;;7.25;4.25;;;;;;;;5052999;28;45498;-81
2022/04/14 11:59:33;;;;;;;;;4.00;4.00;;;;;;;;5053284;28;45480;-82
2022/04/14 12:02:00;;;;;;;;;2.50;1.25;;;;;;;;5037848;28;45568;-81
2022/04/14 12:04:25;;;;;;;;;1.00;1.00;;;;;;;;5054778;28;45329;-79
2022/04/14 12:06:51;;;;;;;;;4.25;2.75;;;;;;;;5053163;28;45275;-84
2022/04/14 12:09:20;;;;;;;;;2.00;2.00;;;;;;;;5053049;28;46511;-80
2022/04/14 12:11:45;;;;;;;;;2.00;2.00;;;;;;;;5052023;28;45450;-81
2022/04/14 12:14:10;;;;;;;;;2.25;2.25;;;;;;;;5052979;28;45429;-83
2022/04/14 12:16:36;;;;;;;;;3.00;2.00;;;;;;;;5053362;28;45277;-81
2022/04/14 12:19:02;;;;;;;;;4.75;3.75;;;;;;;;5053755;28;45328;-82
2022/04/14 12:21:28;;;;;;;;;3.00;3.00;;;;;;;;5052362;28;45498;-82
2022/04/14 12:23:53;;;;;;;;;3.00;3.00;;;;;;;;5053810;28;45426;-80
2022/04/14 12:26:20;;;;;;;;;2.50;2.50;;;;;;;;5053237;28;45341;-82
2022/04/14 12:28:46;;;;;;;;;2.50;1.00;;;;;;;;5052904;28;46204;-80
2022/04/14 12:31:11;;;;;;;;;2.00;2.00;;;;;;;;5054288;28;45580;-83
2022/04/14 12:33:37;;;;;;;;;1.25;1.25;;;;;;;;5052052;28;45260;-84
2022/04/14 12:36:09;;;;;;;;;2.00;2.00;;;;;;;;5052642;28;45406;-85
2022/04/14 12:38:42;;;;;;;;;4.00;4.00;;;;;;;;5051777;28;46349;-85
2022/04/14 12:41:12;;;;;;;;;1.50;1.50;;;;;;;;5052236;28;45387;-79
2022/04/14 12:43:38;;;;;;;;;5.25;5.25;;;;;;;;5055939;28;45291;-84
2022/04/14 12:46:42;;;;;;;;;3.00;3.00;;;;;;;;5053314;28;45271;-80
2022/04/14 12:49:14;;;;;;;;;3.75;2.00;;;;;;;;4975776;28;46994;-86
2022/04/14 12:51:45;;;;;;;;;1.75;1.75;;;;;;;;4981185;28;45639;-87
2022/04/14 12:54:15;;;;;;;;;1.00;1.00;;;;;;;;4982796;28;45434;-82
2022/04/14 12:56:40;;;;;;;;;3.00;3.00;;;;;;;;4982672;28;45468;-79
2022/04/14 12:59:10;;;;;;;;;2.25;1.50;;;;;;;;4985479;28;46443;-80
2022/04/14 13:01:45;;;;;;;;;2.50;2.25;;;;;;;;4986570;28;45874;-81
2022/04/14 13:04:10;;;;;;;;;1.50;1.50;;;;;;;;4974557;28;45469;-83
2022/04/14 13:06:36;;;;;;;;;3.50;2.00;;;;;;;;4976193;28;45471;-82
2022/04/14 13:09:21;;;;;;;;;1.00;1.00;;;;;;;;4975871;28;46248;-82
2022/04/14 13:11:46;;;;;;;;;1.00;1.00;;;;;;;;4984415;28;45433;-81
2022/04/14 13:14:37;;;;;;;;;1.00;1.00;;;;;;;;4971545;28;45440;-83
2022/04/14 13:17:03;;;;;;;;;1.75;0.75;;;;;;;;4957305;28;45453;-82
2022/04/14 13:19:29;;;;;;;;;4.00;4.00;;;;;;;;5009321;28;46949;-83
2022/04/14 13:21:54;;;;;;;;;1.75;1.75;;;;;;;;5050698;28;45386;-83
2022/04/14 13:24:20;;;;;;;;;1.25;1.25;;;;;;;;5051959;28;45434;-81
2022/04/14 13:26:46;;;;;;;;;1.25;0.25;;;;;;;;5050129;28;45395;-83
2022/04/14 13:29:11;;;;;;;;;2.00;2.00;;;;;;;;5031200;28;46308;-80
2022/04/14 13:31:40;;;;;;;;;1.50;1.00;;;;;;;;5052431;28;45383;-83
2022/04/14 13:34:05;;;;;;;;;2.50;2.50;;;;;;;;5051270;28;45389;-81
2022/04/14 13:36:30;;;;;;;;;1.00;1.00;;;;;;;;5051896;28;45533;-82
2022/04/14 13:38:56;;;;;;;;;2.00;2.00;;;;;;;;5049421;28;45753;-81
2022/04/14 13:41:21;;;;;;;;;1.75;1.75;;;;;;;;5050846;28;45267;-82
2022/04/14 13:43:46;;;;;;;;;3.25;1.50;;;;;;;;5051506;28;45868;-82
2022/04/14 13:46:12;;;;;;;;;1.00;1.00;;;;;;;;5052397;28;45288;-83
2022/04/14 13:48:37;;;;;;;;;2.50;2.50;;;;;;;;5054176;28;45366;-84
2022/04/14 13:51:02;;;;;;;;;1.50;1.50;;;;;;;;5055368;28;45481;-83
2022/04/14 13:53:28;;;;;;;;;4.00;2.00;;;;;;;;5053149;28;45394;-82
2022/04/14 13:55:53;;;;;;;;;3.50;2.50;;;;;;;;5055503;28;45345;-81
2022/04/14 13:58:21;;;;;;;;;2.00;2.00;;;;;;;;5056544;28;47021;-84
2022/04/14 14:00:47;;;;;;;;;1.00;1.00;;;;;;;;5054498;28;45376;-83
2022/04/14 14:03:13;;;;;;;;;2.50;1.00;;;;;;;;5054520;28;45514;-82
2022/04/14 14:05:38;;;;;;;;;0.75;0.75;;;;;;;;5054191;28;45434;-81
2022/04/14 14:08:03;;;;;;;;;0.75;0.00;;;;;;;;5055190;28;46290;-83
2022/04/14 14:10:28;;;;;;;;;0.00;0.00;;;;;;;;5056181;28;45491;-82
2022/04/14 14:12:54;;;;;;;;;0.00;0.00;;;;;;;;5055681;28;45439;-83
2022/04/14 14:15:19;;;;;;;;;0.00;0.00;;;;;;;;5054099;28;45412;-83
2022/04/14 14:17:44;;;;;;;;;0.50;0.50;;;;;;;;5053829;28;45461;-83
2022/04/14 14:20:10;;;;;;;;;0.00;0.00;;;;;;;;5053265;28;45282;-84
2022/04/14 14:22:35;;;;;;;;;2.50;1.25;;;;;;;;5057457;28;45352;-84